EIMS weather

Mountshannon Seaplane Base
Mountshannon, County Clare, Ireland

Public forecast

Using degrees Celsius for public forecast. Weather courtesy of forecast.io.

Closest aviation weather report (METAR) to Mountshannon Seaplane Base

Closest report is Shannon Airport, 22.8 nm (42.1 km) SW. Retrieved 2020/07/03 20:30 UTC (2 minutes ago):

EINN 032030Z 23012KT 5000 -DZ SCT004 BKN007 BKN012 15/15 Q1005 TEMPO 4000

Closest aviation forecast (TAF) to Mountshannon Seaplane Base

Closest forecast is Shannon Airport, 22.8 nm (42.1 km) SW. Retrieved 2020/07/03 18:11 UTC (2 hours ago):

TAF EINN 031700Z 0318/0418 24011KT 7000 BKN018 TEMPO 0318/0418 4000 -RADZ BKN007 PROB40 TEMPO 0319/0409 2500 BKN004 PROB30 TEMPO 0320/0405 0700 FG BKN002 BECMG 0408/0410 21010KT PROB30 TEMPO 0409/0412 2500 BKN004 BECMG 0411/0413 24012KT PROB40 TEMPO 0412/0418 2500 BKN004